createdAt,value
2022-09-14T00:01:55.192Z,16
2022-09-14T00:04:00.677Z,16.1
2022-09-14T00:05:58.334Z,16.1
2022-09-14T00:07:55.984Z,16.1
2022-09-14T00:14:51.747Z,16
2022-09-14T00:16:57.366Z,15.9
2022-09-14T00:18:54.991Z,15.9
2022-09-14T00:20:52.642Z,15.8
2022-09-14T00:22:50.272Z,15.9
2022-09-14T00:24:47.960Z,15.9
2022-09-14T00:26:45.597Z,15.9
2022-09-14T00:28:43.396Z,15.9
2022-09-14T00:30:48.842Z,16
2022-09-14T00:32:46.486Z,16
2022-09-14T00:34:44.101Z,16.1
2022-09-14T00:36:41.776Z,16.2
2022-09-14T00:38:39.405Z,16.1
2022-09-14T00:40:37.066Z,16.2
2022-09-14T00:42:34.717Z,16.1
2022-09-14T00:44:40.323Z,16.1
2022-09-14T00:46:37.977Z,16
2022-09-14T00:48:35.610Z,16.2
2022-09-14T00:50:33.278Z,16.1
2022-09-14T00:52:30.896Z,16
2022-09-14T00:54:28.544Z,16
2022-09-14T00:56:26.240Z,16
2022-09-14T00:58:31.775Z,15.9
2022-09-14T01:00:29.461Z,15.9
2022-09-14T01:02:27.251Z,15.8
2022-09-14T01:03:29.889Z,15.9
2022-09-14T01:05:27.537Z,15.9
2022-09-14T01:07:25.180Z,15.8
2022-09-14T01:09:22.835Z,15.9
2022-09-14T01:11:28.419Z,15.8
2022-09-14T01:13:26.060Z,15.9
2022-09-14T01:15:23.699Z,15.9
2022-09-14T01:17:21.344Z,15.8
2022-09-14T01:21:16.628Z,15.9
2022-09-14T01:27:17.537Z,15.9
2022-09-14T01:29:15.191Z,15.8
2022-09-14T01:31:12.927Z,15.8
2022-09-14T01:33:10.489Z,15.9
2022-09-14T01:35:08.143Z,15.8
2022-09-14T01:37:05.813Z,15.8
2022-09-14T01:39:11.360Z,15.9
2022-09-14T01:43:06.652Z,16
2022-09-14T01:47:01.994Z,15.9
2022-09-14T01:50:57.278Z,15.9
2022-09-14T01:53:02.877Z,15.8
2022-09-14T01:55:00.524Z,15.8
2022-09-14T01:56:58.165Z,15.7
2022-09-14T01:58:00.953Z,15.8
2022-09-14T02:01:56.286Z,15.9
2022-09-14T02:03:53.886Z,15.9
2022-09-14T02:09:54.756Z,15.8
2022-09-14T02:11:52.386Z,15.8
2022-09-14T02:13:50.145Z,15.8
2022-09-14T02:15:47.668Z,15.8
2022-09-14T02:19:50.907Z,15.8
2022-09-14T02:25:43.848Z,15.8
2022-09-14T02:27:41.523Z,15.8
2022-09-14T02:29:39.156Z,15.9
2022-09-14T02:31:36.886Z,15.7
2022-09-14T02:33:42.387Z,15.8
2022-09-14T02:35:40.063Z,15.9
2022-09-14T02:37:37.736Z,15.8
2022-09-14T02:39:35.437Z,15.8
2022-09-14T02:41:33.046Z,15.8
2022-09-14T02:43:30.689Z,15.9
2022-09-14T02:45:28.344Z,15.9
2022-09-14T02:47:33.930Z,15.9
2022-09-14T02:53:52.003Z,15.8
2022-09-14T02:55:49.655Z,15.9
2022-09-14T02:57:47.324Z,16
2022-09-14T03:03:48.178Z,15.9
2022-09-14T03:05:47.413Z,15.8
2022-09-14T03:07:45.014Z,15.8
2022-09-14T03:09:42.664Z,15.9
2022-09-14T03:11:40.300Z,15.8
2022-09-14T03:13:45.923Z,15.7
2022-09-14T03:15:43.599Z,15.8
2022-09-14T03:17:41.180Z,15.7
2022-09-14T03:19:38.804Z,15.7
2022-09-14T03:21:36.463Z,15.7
2022-09-14T03:29:34.976Z,15.8
2022-09-14T03:31:32.691Z,15.7
2022-09-14T03:33:30.278Z,15.8
2022-09-14T03:35:27.915Z,15.8
2022-09-14T03:39:23.227Z,15.8
2022-09-14T03:45:24.139Z,15.7
2022-09-14T03:46:27.003Z,15.7
2022-09-14T03:48:24.562Z,15.8
2022-09-14T03:50:22.224Z,15.8
2022-09-14T03:52:19.893Z,15.7
2022-09-14T03:54:25.443Z,15.7
2022-09-14T03:56:23.118Z,15.7
2022-09-14T03:58:20.754Z,15.8
2022-09-14T04:00:18.393Z,15.7
2022-09-14T04:02:16.099Z,15.7
2022-09-14T04:10:14.573Z,15.7
2022-09-14T04:12:12.218Z,15.6
2022-09-14T04:14:09.863Z,15.7
2022-09-14T04:16:07.627Z,15.6
2022-09-14T04:18:05.161Z,15.8
2022-09-14T04:20:02.815Z,15.7
2022-09-14T04:24:15.256Z,15.8
2022-09-14T04:28:19.685Z,15.7
2022-09-14T04:31:56.644Z,15.6
2022-09-14T04:33:54.283Z,15.6
2022-09-14T04:35:59.851Z,15.7
2022-09-14T04:37:57.481Z,15.7
2022-09-14T04:40:57.932Z,15.8
2022-09-14T04:42:55.555Z,15.6
2022-09-14T04:44:53.195Z,15.5
2022-09-14T04:46:50.934Z,15.5
2022-09-14T04:48:56.424Z,15.5
2022-09-14T04:50:54.091Z,15.5
2022-09-14T04:52:51.728Z,15.5
2022-09-14T04:58:47.216Z,15.6
2022-09-14T05:00:42.321Z,15.6
2022-09-14T05:02:48.005Z,15.6
2022-09-14T05:04:45.590Z,15.5
2022-09-14T05:06:43.213Z,15.6
2022-09-14T05:08:40.893Z,15.5
2022-09-14T05:10:38.552Z,15.5
2022-09-14T05:12:36.190Z,15.4
2022-09-14T05:14:33.883Z,15.5
2022-09-14T05:16:39.407Z,15.4
2022-09-14T05:18:37.057Z,15.4
2022-09-14T05:20:34.737Z,15.6
2022-09-14T05:22:32.361Z,15.5
2022-09-14T05:24:30.006Z,15.5
2022-09-14T05:26:27.673Z,15.4
2022-09-14T05:28:25.313Z,15.5
2022-09-14T05:30:30.895Z,15.4
2022-09-14T05:32:28.516Z,15.4
2022-09-14T05:34:26.169Z,15.4
2022-09-14T05:35:28.956Z,15.4
2022-09-14T05:37:26.603Z,15.4
2022-09-14T05:39:24.265Z,15.6
2022-09-14T05:41:21.919Z,15.5
2022-09-14T05:43:27.485Z,15.5
2022-09-14T05:45:25.145Z,15.5
2022-09-14T05:47:22.787Z,15.6
2022-09-14T05:49:20.432Z,15.6
2022-09-14T05:51:18.082Z,15.7
2022-09-14T05:53:15.719Z,15.6
2022-09-14T05:55:13.371Z,15.6
2022-09-14T05:57:18.945Z,15.6
2022-09-14T05:59:16.617Z,15.7
2022-09-14T06:01:14.277Z,15.7
2022-09-14T06:03:11.926Z,15.6
2022-09-14T06:07:18.451Z,15.6
2022-09-14T06:11:10.408Z,15.8
2022-09-14T06:15:05.715Z,15.9
2022-09-14T06:17:03.380Z,16
2022-09-14T06:19:01.041Z,15.9
2022-09-14T06:20:58.678Z,15.9
2022-09-14T06:22:56.328Z,15.9
2022-09-14T06:25:01.915Z,16
2022-09-14T06:26:59.521Z,16
2022-09-14T06:28:57.165Z,16.1
2022-09-14T06:31:24.101Z,16
2022-09-14T06:33:21.762Z,16
2022-09-14T06:35:19.386Z,16
2022-09-14T06:37:24.985Z,16.1
2022-09-14T06:39:22.623Z,16.1
2022-09-14T06:41:20.310Z,16.3
2022-09-14T06:43:17.913Z,16.5
2022-09-14T06:47:13.198Z,16.5
2022-09-14T06:49:10.855Z,16.5
2022-09-14T06:51:16.458Z,16.5
2022-09-14T06:53:14.104Z,16.5
2022-09-14T06:55:11.741Z,16.5
2022-09-14T06:57:09.370Z,16.4
2022-09-14T06:59:07.007Z,16.6
2022-09-14T07:01:04.657Z,16.4
2022-09-14T07:03:02.331Z,16.4
2022-09-14T07:05:07.850Z,16.3
2022-09-14T07:07:05.462Z,16.5
2022-09-14T07:11:00.745Z,16.4
2022-09-14T07:12:58.429Z,16.4
2022-09-14T07:14:56.011Z,16.4
2022-09-14T07:16:53.556Z,16.4
2022-09-14T07:18:59.149Z,16.3
2022-09-14T07:20:56.745Z,16.4
2022-09-14T07:23:57.209Z,16.5
2022-09-14T07:25:54.809Z,16.4
2022-09-14T07:27:52.450Z,16.2
2022-09-14T07:29:50.093Z,16.3
2022-09-14T07:31:55.708Z,16.3
2022-09-14T07:33:53.409Z,16.2
2022-09-14T07:35:50.948Z,16.2
2022-09-14T07:41:43.828Z,16.2
2022-09-14T07:43:41.474Z,16.4
2022-09-14T07:49:42.317Z,16.3
2022-09-14T07:51:39.965Z,16.3
2022-09-14T07:53:37.573Z,16.3
2022-09-14T07:55:35.219Z,16.5
2022-09-14T07:57:54.555Z,16.4
2022-09-14T07:59:38.419Z,16.5
2022-09-14T08:01:36.162Z,16.4
2022-09-14T08:03:33.674Z,16.4
2022-09-14T08:05:31.311Z,16.4
2022-09-14T08:09:26.618Z,16.4
2022-09-14T08:11:24.253Z,16.4
2022-09-14T08:13:29.835Z,16.5
2022-09-14T08:15:28.664Z,16.5
2022-09-14T08:17:25.110Z,16.4
2022-09-14T08:18:27.878Z,16.4
2022-09-14T08:20:25.532Z,16.3
2022-09-14T08:24:20.798Z,16.7
2022-09-14T08:26:26.355Z,16.5
2022-09-14T08:28:23.974Z,16.6
2022-09-14T08:30:21.614Z,16.7
2022-09-14T08:32:19.237Z,16.6
2022-09-14T08:34:16.862Z,16.6
2022-09-14T08:36:14.514Z,16.6
2022-09-14T08:38:12.159Z,16.6
2022-09-14T08:40:17.730Z,16.7
2022-09-14T08:42:15.323Z,16.7
2022-09-14T08:44:12.944Z,16.9
2022-09-14T08:46:10.676Z,16.9
2022-09-14T08:48:09.781Z,16.9
2022-09-14T08:54:10.545Z,16.8
2022-09-14T08:58:05.861Z,16.9
2022-09-14T09:00:03.450Z,16.8
2022-09-14T09:02:01.078Z,16.7
2022-09-14T09:03:58.787Z,16.9
2022-09-14T09:05:56.343Z,16.9
2022-09-14T09:08:01.884Z,17
2022-09-14T09:09:59.509Z,17.1
2022-09-14T09:12:59.894Z,17.1
2022-09-14T09:22:55.931Z,17.3
2022-09-14T09:26:51.178Z,17.3
2022-09-14T09:30:46.432Z,17.5
2022-09-14T09:32:44.032Z,17.4
2022-09-14T09:34:49.592Z,17.4
2022-09-14T09:36:47.204Z,17.4
2022-09-14T09:38:44.833Z,17.6
2022-09-14T09:40:42.478Z,17.6
2022-09-14T09:42:40.060Z,17.7
2022-09-14T09:44:37.688Z,17.8
2022-09-14T09:46:35.357Z,17.7
2022-09-14T09:48:40.842Z,17.5
2022-09-14T09:52:36.057Z,17.7
2022-09-14T09:54:33.681Z,17.6
2022-09-14T09:56:31.294Z,17.7
2022-09-14T09:58:28.923Z,17.6
2022-09-14T10:00:26.523Z,17.6
2022-09-14T10:02:32.217Z,17.7
2022-09-14T10:04:29.702Z,17.8
2022-09-14T10:06:27.298Z,17.8
2022-09-14T10:08:50.804Z,17.8
2022-09-14T10:10:48.336Z,17.9
2022-09-14T10:12:45.908Z,17.9
2022-09-14T10:14:51.448Z,17.9
2022-09-14T10:16:49.083Z,18
2022-09-14T10:18:48.943Z,17.9
2022-09-14T10:20:44.311Z,17.9
2022-09-14T10:22:41.914Z,18
2022-09-14T10:24:39.521Z,18
2022-09-14T10:26:37.116Z,18.1
2022-09-14T10:28:42.651Z,18.1
2022-09-14T10:30:40.289Z,18.3
2022-09-14T10:32:37.881Z,18.1
2022-09-14T10:34:35.481Z,18.1
2022-09-14T10:36:33.087Z,18.2
2022-09-14T10:38:30.712Z,18.3
2022-09-14T10:40:28.397Z,18.3
2022-09-14T10:44:31.453Z,18.3
2022-09-14T10:46:29.099Z,18.4
2022-09-14T10:48:26.674Z,18.5
2022-09-14T10:50:24.264Z,18.5
2022-09-14T10:52:21.879Z,18.5
2022-09-14T11:00:20.262Z,18.6
2022-09-14T11:01:23.057Z,18.6
2022-09-14T11:03:20.605Z,18.7
2022-09-14T11:05:18.210Z,18.8
2022-09-14T11:07:15.807Z,18.7
2022-09-14T11:09:21.371Z,18.7
2022-09-14T11:11:18.986Z,18.6
2022-09-14T11:13:16.605Z,18.5
2022-09-14T11:17:11.785Z,18.5
2022-09-14T11:19:09.380Z,18.6
2022-09-14T11:21:06.979Z,18.7
2022-09-14T11:23:12.540Z,18.9
2022-09-14T11:27:07.738Z,18.9
2022-09-14T11:29:05.357Z,18.9
2022-09-14T11:31:03.047Z,18.8
2022-09-14T11:33:00.559Z,18.8
2022-09-14T11:34:58.261Z,19
2022-09-14T11:37:03.719Z,19
2022-09-14T11:39:06.029Z,18.9
2022-09-14T11:40:58.952Z,18.8
2022-09-14T11:42:56.544Z,18.7
2022-09-14T11:44:54.126Z,19
2022-09-14T11:46:51.745Z,19.2
2022-09-14T11:48:49.342Z,19.1
2022-09-14T11:50:54.875Z,19
2022-09-14T11:54:50.080Z,19.2
2022-09-14T11:55:52.850Z,19.2
2022-09-14T11:57:50.418Z,19.2
2022-09-14T11:59:48.001Z,19.3
2022-09-14T12:01:45.572Z,19.2
2022-09-14T12:05:48.721Z,19.4
2022-09-14T12:07:46.312Z,19.4
2022-09-14T12:15:36.651Z,19.5
2022-09-14T12:19:40.657Z,19.5
2022-09-14T12:21:38.209Z,19.6
2022-09-14T12:23:35.777Z,19.6
2022-09-14T12:25:33.356Z,19.6
2022-09-14T12:27:30.938Z,19.8
2022-09-14T12:29:28.490Z,19.9
2022-09-14T12:31:34.069Z,19.8
2022-09-14T12:33:31.646Z,19.8
2022-09-14T12:35:29.236Z,19.6
2022-09-14T12:37:26.803Z,19.9
2022-09-14T12:39:24.370Z,19.9
2022-09-14T12:41:21.934Z,19.9
2022-09-14T12:43:19.512Z,19.9
2022-09-14T12:45:25.025Z,20.2
2022-09-14T12:47:22.606Z,20.2
2022-09-14T12:49:20.174Z,20.1
2022-09-14T12:50:22.930Z,20
2022-09-14T12:52:20.493Z,20.1
2022-09-14T12:54:18.040Z,20
2022-09-14T12:56:15.617Z,20.1
2022-09-14T12:58:21.129Z,20.2
2022-09-14T13:02:16.401Z,20.2
2022-09-14T13:08:08.927Z,21.1
2022-09-14T13:10:06.498Z,22
2022-09-14T13:12:12.010Z,22.8
2022-09-14T13:14:09.546Z,22.6
2022-09-14T13:16:07.133Z,22.6
2022-09-14T13:18:04.613Z,22.1
2022-09-14T13:20:02.146Z,22
2022-09-14T13:21:59.633Z,22.1
2022-09-14T13:23:57.134Z,22
2022-09-14T13:26:02.607Z,22.2
2022-09-14T13:28:00.159Z,22
2022-09-14T13:29:57.620Z,22.1
2022-09-14T13:31:57.580Z,22.3
2022-09-14T13:33:52.622Z,23.1
2022-09-14T13:35:50.131Z,23.5
2022-09-14T13:37:48.299Z,24.1
2022-09-14T13:39:53.120Z,25.1
2022-09-14T13:41:50.544Z,25
2022-09-14T13:43:48.056Z,25.4
2022-09-14T13:46:10.731Z,23.7
2022-09-14T13:48:08.157Z,23.4
2022-09-14T13:50:05.604Z,22.8
2022-09-14T13:52:11.058Z,22.8
2022-09-14T13:54:08.509Z,22.9
2022-09-14T13:56:05.958Z,25.1
2022-09-14T13:58:03.404Z,26.5
2022-09-14T14:00:00.830Z,27.9
2022-09-14T14:01:58.442Z,28.7
2022-09-14T14:03:55.653Z,29.2
2022-09-14T14:06:01.111Z,28.5
2022-09-14T14:07:58.478Z,29.2
2022-09-14T14:09:55.866Z,29
2022-09-14T14:11:53.226Z,28
2022-09-14T14:15:47.885Z,28.9
2022-09-14T14:17:45.221Z,29.9
2022-09-14T14:19:50.611Z,29.2
2022-09-14T14:21:47.857Z,28.3
2022-09-14T14:24:09.282Z,26.9
2022-09-14T14:25:46.115Z,25.4
2022-09-14T14:27:39.790Z,24.5
2022-09-14T14:29:38.652Z,24.5
2022-09-14T14:31:35.946Z,24.6
2022-09-14T14:33:41.284Z,24.3
2022-09-14T14:35:38.629Z,23.9
2022-09-14T14:37:35.974Z,23.4
2022-09-14T14:40:36.188Z,22.9
2022-09-14T14:42:33.382Z,22.8
2022-09-14T14:44:30.783Z,22.7
2022-09-14T14:46:36.269Z,22.7
2022-09-14T14:48:33.583Z,22.7
2022-09-14T14:50:31.027Z,22.3
2022-09-14T14:52:28.435Z,22.4
2022-09-14T14:54:25.866Z,22.4
2022-09-14T14:56:23.309Z,22.3
2022-09-14T14:58:20.753Z,22.4
2022-09-14T15:00:26.203Z,22.4
2022-09-14T15:02:23.673Z,22.5
2022-09-14T15:04:21.135Z,22.5
2022-09-14T15:06:18.631Z,22.4
2022-09-14T15:08:16.105Z,22.2
2022-09-14T15:14:16.498Z,22
2022-09-14T15:20:09.012Z,22
2022-09-14T15:22:06.526Z,22.2
2022-09-14T15:24:04.039Z,22.2
2022-09-14T15:26:01.503Z,22
2022-09-14T15:28:06.969Z,21.8
2022-09-14T15:30:04.496Z,21.7
2022-09-14T15:32:02.110Z,21.8
2022-09-14T15:33:04.723Z,22.1
2022-09-14T15:43:00.275Z,22
2022-09-14T15:44:57.759Z,22
2022-09-14T15:46:55.293Z,22.2
2022-09-14T15:48:52.819Z,22.1
2022-09-14T15:50:50.346Z,21.8
2022-09-14T15:52:47.826Z,21.7
2022-09-14T15:54:53.337Z,22
2022-09-14T15:56:50.844Z,21.8
2022-09-14T15:58:48.420Z,21.7
2022-09-14T16:00:45.984Z,21.7
2022-09-14T16:02:43.432Z,21.7
2022-09-14T16:04:40.954Z,21.6
2022-09-14T16:06:38.494Z,21.4
2022-09-14T16:08:43.978Z,21.2
2022-09-14T16:10:41.544Z,21.2
2022-09-14T16:12:39.097Z,21.2
2022-09-14T16:14:36.661Z,21
2022-09-14T16:22:34.801Z,21.2
2022-09-14T16:26:29.921Z,21
2022-09-14T16:27:32.666Z,20.9
2022-09-14T16:29:30.265Z,20.8
2022-09-14T16:31:27.841Z,20.9
2022-09-14T16:33:25.351Z,21
2022-09-14T16:35:30.866Z,21
2022-09-14T16:37:28.478Z,20.9
2022-09-14T16:39:26.027Z,20.8
2022-09-14T16:41:23.601Z,20.7
2022-09-14T16:43:21.170Z,20.7
2022-09-14T16:47:16.287Z,20.7
2022-09-14T16:51:19.389Z,20.4
2022-09-14T16:53:16.980Z,20.5
2022-09-14T16:55:14.547Z,20.5
2022-09-14T16:57:12.132Z,20.6
2022-09-14T16:59:09.687Z,20.4
2022-09-14T17:01:07.368Z,20.2
2022-09-14T17:03:12.830Z,20.4
2022-09-14T17:05:10.442Z,20.4
2022-09-14T17:07:08.005Z,20.3
2022-09-14T17:09:05.576Z,20.4
2022-09-14T17:13:00.718Z,20.2
2022-09-14T17:19:01.468Z,20.1
2022-09-14T17:23:21.713Z,20
2022-09-14T17:25:19.320Z,20
2022-09-14T17:31:20.153Z,19.8
2022-09-14T17:33:17.643Z,19.7
2022-09-14T17:35:15.241Z,19.8
2022-09-14T17:41:07.991Z,19.7
2022-09-14T17:43:13.522Z,19.6
2022-09-14T17:47:08.793Z,19.5
2022-09-14T17:49:06.335Z,19.4
2022-09-14T17:54:59.081Z,19.3
2022-09-14T18:02:57.450Z,19.3
2022-09-14T18:04:55.086Z,19.3
2022-09-14T18:06:52.632Z,19.1
2022-09-14T18:08:50.251Z,19.2
2022-09-14T18:10:55.792Z,19
2022-09-14T18:12:53.394Z,19
2022-09-14T18:14:51.014Z,19
2022-09-14T18:17:51.414Z,19
2022-09-14T18:19:49.015Z,18.8
2022-09-14T18:21:51.585Z,18.7
2022-09-14T18:25:49.796Z,18.8
2022-09-14T18:27:47.406Z,18.8
2022-09-14T18:29:45.000Z,18.7
2022-09-14T18:31:42.729Z,18.8
2022-09-14T18:35:37.838Z,18.7
2022-09-14T18:37:43.374Z,18.5
2022-09-14T18:39:40.980Z,18.6
2022-09-14T18:41:38.599Z,18.4
2022-09-14T18:43:36.209Z,18.4
2022-09-14T18:45:33.844Z,18.3
2022-09-14T18:49:29.142Z,18.3
2022-09-14T18:51:34.688Z,18.1
2022-09-14T18:55:29.917Z,18.2
2022-09-14T18:57:27.535Z,18.1
2022-09-14T18:59:25.150Z,17.9
2022-09-14T19:01:22.868Z,18
2022-09-14T19:03:20.404Z,18
2022-09-14T19:05:25.952Z,17.8
2022-09-14T19:07:23.579Z,17.8
2022-09-14T19:09:21.190Z,17.8
2022-09-14T19:12:21.583Z,17.7
2022-09-14T19:14:19.191Z,17.7
2022-09-14T19:16:16.913Z,17.7
2022-09-14T19:20:20.018Z,17.7
2022-09-14T19:22:17.623Z,17.7
2022-09-14T19:24:15.238Z,17.7
2022-09-14T19:26:12.884Z,17.6
2022-09-14T19:28:10.503Z,17.7
2022-09-14T19:30:08.146Z,17.6
2022-09-14T19:32:13.726Z,17.6
2022-09-14T19:34:11.351Z,17.6
2022-09-14T19:36:09.000Z,17.6
2022-09-14T19:42:01.874Z,17.4
2022-09-14T19:43:59.483Z,17.3
2022-09-14T19:50:00.324Z,17.4
2022-09-14T19:51:57.931Z,17.3
2022-09-14T19:53:55.563Z,17.2
2022-09-14T19:55:53.198Z,17.2
2022-09-14T19:57:50.815Z,17.2
2022-09-14T19:59:56.408Z,17
2022-09-14T20:01:54.222Z,17.1
2022-09-14T20:03:51.688Z,17.1
2022-09-14T20:10:48.906Z,16.9
2022-09-14T20:14:52.057Z,16.9
2022-09-14T20:16:49.684Z,16.8
2022-09-14T20:18:47.336Z,16.9
2022-09-14T20:26:45.768Z,16.9
2022-09-14T20:32:38.695Z,16.9
2022-09-14T20:34:36.327Z,16.8
2022-09-14T20:36:33.961Z,16.7
2022-09-14T20:38:31.597Z,16.7
2022-09-14T20:40:37.271Z,16.7
2022-09-14T20:44:32.455Z,16.6
2022-09-14T20:46:30.156Z,16.7
2022-09-14T20:48:27.769Z,16.6
2022-09-14T20:50:25.391Z,16.5
2022-09-14T20:54:28.616Z,16.4
2022-09-14T20:56:26.250Z,16.5
2022-09-14T21:00:50.848Z,16.5
2022-09-14T21:02:48.533Z,16.5
2022-09-14T21:04:46.127Z,16.5
2022-09-14T21:06:51.694Z,16.4
2022-09-14T21:10:46.998Z,16.5
2022-09-14T21:18:37.536Z,16.4
2022-09-14T21:20:43.076Z,16.3
2022-09-14T21:22:40.728Z,16.3
2022-09-14T21:24:38.404Z,16.4
2022-09-14T21:26:39.336Z,16.2
2022-09-14T21:28:33.721Z,16.4
2022-09-14T21:30:31.369Z,16.4
2022-09-14T21:32:29.027Z,16.3
2022-09-14T21:36:32.395Z,16.5
2022-09-14T21:38:29.907Z,16.3
2022-09-14T21:40:27.580Z,16.3
2022-09-14T21:42:25.181Z,16.4
2022-09-14T21:48:26.094Z,16.4
2022-09-14T21:52:21.383Z,16.4
2022-09-14T21:53:24.173Z,16.4
2022-09-14T21:55:21.817Z,16.3
2022-09-14T21:57:19.482Z,16.3
2022-09-14T22:03:20.300Z,16.3
2022-09-14T22:05:17.945Z,16.2
2022-09-14T22:07:15.611Z,16.1
2022-09-14T22:11:10.901Z,16.1
2022-09-14T22:17:11.755Z,15.9
2022-09-14T22:19:09.407Z,15.8
2022-09-14T22:25:02.340Z,15.8
2022-09-14T22:26:59.981Z,15.8
2022-09-14T22:29:05.546Z,15.7
2022-09-14T22:34:58.504Z,15.5
2022-09-14T22:36:56.169Z,15.6
2022-09-14T22:40:51.486Z,15.4
2022-09-14T22:46:52.352Z,15.3
2022-09-14T22:47:55.145Z,15.3
2022-09-14T22:49:52.808Z,15.3
2022-09-14T22:51:50.459Z,15.4
2022-09-14T22:53:48.094Z,15.2
2022-09-14T22:55:53.655Z,15.3
2022-09-14T22:57:51.323Z,15.2
2022-09-14T22:59:48.972Z,15.3
2022-09-14T23:01:46.719Z,15.3
2022-09-14T23:03:44.323Z,15.3
2022-09-14T23:07:39.581Z,15.3
2022-09-14T23:09:45.187Z,15.3
2022-09-14T23:13:40.490Z,15.3
2022-09-14T23:15:38.152Z,15.4
2022-09-14T23:17:35.805Z,15.2
2022-09-14T23:19:33.465Z,15.3
2022-09-14T23:21:31.152Z,15.1
2022-09-14T23:23:36.701Z,15.1
2022-09-14T23:25:34.326Z,15.2
2022-09-14T23:27:32.019Z,15.2
2022-09-14T23:29:29.663Z,15.1
2022-09-14T23:31:27.476Z,15.2
2022-09-14T23:33:24.958Z,15.2
2022-09-14T23:37:28.197Z,15.1
2022-09-14T23:41:23.521Z,15.1
2022-09-14T23:42:26.297Z,15.3
2022-09-14T23:44:23.939Z,15.2
2022-09-14T23:46:21.648Z,15.3
2022-09-14T23:48:19.277Z,15.3
2022-09-14T23:50:24.868Z,15.2
2022-09-14T23:52:22.535Z,15.3
2022-09-14T23:56:17.863Z,15.4
